sensor_id;sensor_type;location;lat;lon;timestamp;temperature;humidity
33007;DHT22;19361;51.598;7.650;2022-07-29T00:01:54;22.60;38.00
33007;DHT22;19361;51.598;7.650;2022-07-29T00:06:55;22.60;38.00
33007;DHT22;19361;51.598;7.650;2022-07-29T00:11:58;22.50;38.10
33007;DHT22;19361;51.598;7.650;2022-07-29T00:17:00;22.50;38.90
33007;DHT22;19361;51.598;7.650;2022-07-29T00:22:01;22.50;38.50
33007;DHT22;19361;51.598;7.650;2022-07-29T00:27:02;22.40;38.40
33007;DHT22;19361;51.598;7.650;2022-07-29T00:32:03;22.40;38.60
33007;DHT22;19361;51.598;7.650;2022-07-29T00:37:04;22.30;39.10
33007;DHT22;19361;51.598;7.650;2022-07-29T00:42:05;22.30;38.70
33007;DHT22;19361;51.598;7.650;2022-07-29T00:47:06;22.20;38.90
33007;DHT22;19361;51.598;7.650;2022-07-29T00:52:09;22.20;39.00
33007;DHT22;19361;51.598;7.650;2022-07-29T00:57:11;22.10;39.10
33007;DHT22;19361;51.598;7.650;2022-07-29T01:02:13;22.10;39.30
33007;DHT22;19361;51.598;7.650;2022-07-29T01:07:13;22.00;39.30
33007;DHT22;19361;51.598;7.650;2022-07-29T01:12:19;22.00;39.40
33007;DHT22;19361;51.598;7.650;2022-07-29T01:17:42;21.90;39.60
33007;DHT22;19361;51.598;7.650;2022-07-29T01:23:04;21.90;39.80
33007;DHT22;19361;51.598;7.650;2022-07-29T01:33:58;21.90;39.90
33007;DHT22;19361;51.598;7.650;2022-07-29T01:45:06;21.90;40.10
33007;DHT22;19361;51.598;7.650;2022-07-29T01:50:16;21.90;40.80
33007;DHT22;19361;51.598;7.650;2022-07-29T01:55:20;21.90;39.90
33007;DHT22;19361;51.598;7.650;2022-07-29T02:00:23;21.80;40.00
33007;DHT22;19361;51.598;7.650;2022-07-29T02:05:27;21.80;40.10
33007;DHT22;19361;51.598;7.650;2022-07-29T02:10:31;21.80;40.30
33007;DHT22;19361;51.598;7.650;2022-07-29T02:15:34;21.80;40.30
33007;DHT22;19361;51.598;7.650;2022-07-29T02:20:37;21.80;40.20
33007;DHT22;19361;51.598;7.650;2022-07-29T02:25:39;21.70;40.40
33007;DHT22;19361;51.598;7.650;2022-07-29T02:30:43;21.70;40.50
33007;DHT22;19361;51.598;7.650;2022-07-29T02:35:46;21.70;40.70
33007;DHT22;19361;51.598;7.650;2022-07-29T02:40:48;21.60;40.80
33007;DHT22;19361;51.598;7.650;2022-07-29T02:45:52;21.60;40.90
33007;DHT22;19361;51.598;7.650;2022-07-29T02:51:04;21.50;40.90
33007;DHT22;19361;51.598;7.650;2022-07-29T02:56:28;21.50;41.50
33007;DHT22;19361;51.598;7.650;2022-07-29T03:01:35;21.40;40.90
33007;DHT22;19361;51.598;7.650;2022-07-29T03:06:40;21.50;40.60
33007;DHT22;19361;51.598;7.650;2022-07-29T03:11:42;21.40;41.00
33007;DHT22;19361;51.598;7.650;2022-07-29T03:16:43;21.30;41.20
33007;DHT22;19361;51.598;7.650;2022-07-29T03:21:44;21.30;41.50
33007;DHT22;19361;51.598;7.650;2022-07-29T03:26:45;21.30;41.60
33007;DHT22;19361;51.598;7.650;2022-07-29T03:31:45;21.30;41.60
33007;DHT22;19361;51.598;7.650;2022-07-29T03:36:46;21.20;41.70
33007;DHT22;19361;51.598;7.650;2022-07-29T03:41:49;21.20;41.90
33007;DHT22;19361;51.598;7.650;2022-07-29T03:46:54;21.20;42.00
33007;DHT22;19361;51.598;7.650;2022-07-29T03:51:56;21.10;41.90
33007;DHT22;19361;51.598;7.650;2022-07-29T03:56:59;21.10;41.90
33007;DHT22;19361;51.598;7.650;2022-07-29T04:02:03;21.10;42.10
33007;DHT22;19361;51.598;7.650;2022-07-29T04:07:05;21.10;42.10
33007;DHT22;19361;51.598;7.650;2022-07-29T04:12:06;21.00;42.10
33007;DHT22;19361;51.598;7.650;2022-07-29T04:17:07;21.00;42.20
33007;DHT22;19361;51.598;7.650;2022-07-29T04:22:08;21.00;42.30
33007;DHT22;19361;51.598;7.650;2022-07-29T04:27:09;21.00;42.50
33007;DHT22;19361;51.598;7.650;2022-07-29T04:32:09;21.00;42.60
33007;DHT22;19361;51.598;7.650;2022-07-29T04:37:10;21.00;42.60
33007;DHT22;19361;51.598;7.650;2022-07-29T04:42:11;20.90;42.70
33007;DHT22;19361;51.598;7.650;2022-07-29T04:47:11;21.00;42.60
33007;DHT22;19361;51.598;7.650;2022-07-29T04:52:12;21.00;42.50
33007;DHT22;19361;51.598;7.650;2022-07-29T04:57:13;21.10;42.60
33007;DHT22;19361;51.598;7.650;2022-07-29T05:02:13;21.10;42.80
33007;DHT22;19361;51.598;7.650;2022-07-29T05:07:14;21.20;42.90
33007;DHT22;19361;51.598;7.650;2022-07-29T05:12:15;21.20;43.00
33007;DHT22;19361;51.598;7.650;2022-07-29T05:17:16;21.20;43.20
33007;DHT22;19361;51.598;7.650;2022-07-29T05:22:18;21.20;43.40
33007;DHT22;19361;51.598;7.650;2022-07-29T05:27:19;21.20;43.60
33007;DHT22;19361;51.598;7.650;2022-07-29T05:32:20;21.20;43.60
33007;DHT22;19361;51.598;7.650;2022-07-29T05:37:20;21.20;43.70
33007;DHT22;19361;51.598;7.650;2022-07-29T05:42:21;21.20;43.80
33007;DHT22;19361;51.598;7.650;2022-07-29T05:47:23;21.20;43.90
33007;DHT22;19361;51.598;7.650;2022-07-29T05:52:24;21.20;44.00
33007;DHT22;19361;51.598;7.650;2022-07-29T05:57:25;21.20;43.90
33007;DHT22;19361;51.598;7.650;2022-07-29T06:02:26;21.20;44.00
33007;DHT22;19361;51.598;7.650;2022-07-29T06:07:27;21.20;44.10
33007;DHT22;19361;51.598;7.650;2022-07-29T06:12:27;21.20;44.20
33007;DHT22;19361;51.598;7.650;2022-07-29T06:17:28;21.30;44.30
33007;DHT22;19361;51.598;7.650;2022-07-29T06:22:29;21.30;44.30
33007;DHT22;19361;51.598;7.650;2022-07-29T06:27:30;21.40;44.30
33007;DHT22;19361;51.598;7.650;2022-07-29T06:32:30;21.40;44.40
33007;DHT22;19361;51.598;7.650;2022-07-29T06:37:31;21.50;44.60
33007;DHT22;19361;51.598;7.650;2022-07-29T06:42:32;21.60;44.50
33007;DHT22;19361;51.598;7.650;2022-07-29T06:47:32;21.80;44.40
33007;DHT22;19361;51.598;7.650;2022-07-29T06:52:33;22.00;44.30
33007;DHT22;19361;51.598;7.650;2022-07-29T06:57:34;22.10;44.10
33007;DHT22;19361;51.598;7.650;2022-07-29T07:02:35;22.30;44.30
33007;DHT22;19361;51.598;7.650;2022-07-29T07:07:35;22.60;44.30
33007;DHT22;19361;51.598;7.650;2022-07-29T07:12:36;22.90;43.70
33007;DHT22;19361;51.598;7.650;2022-07-29T07:17:37;23.10;43.50
33007;DHT22;19361;51.598;7.650;2022-07-29T07:22:38;23.20;43.20
33007;DHT22;19361;51.598;7.650;2022-07-29T07:27:38;23.40;43.10
33007;DHT22;19361;51.598;7.650;2022-07-29T07:32:39;23.40;43.00
33007;DHT22;19361;51.598;7.650;2022-07-29T07:37:40;23.50;42.60
33007;DHT22;19361;51.598;7.650;2022-07-29T07:42:41;23.60;42.80
33007;DHT22;19361;51.598;7.650;2022-07-29T07:47:42;23.70;42.90
33007;DHT22;19361;51.598;7.650;2022-07-29T07:52:53;23.90;42.80
33007;DHT22;19361;51.598;7.650;2022-07-29T07:57:57;24.10;42.90
33007;DHT22;19361;51.598;7.650;2022-07-29T08:02:58;24.40;42.60
33007;DHT22;19361;51.598;7.650;2022-07-29T08:07:59;24.60;42.30
33007;DHT22;19361;51.598;7.650;2022-07-29T08:13:02;24.80;42.00
33007;DHT22;19361;51.598;7.650;2022-07-29T08:18:06;24.80;41.50
33007;DHT22;19361;51.598;7.650;2022-07-29T08:23:08;25.00;41.50
33007;DHT22;19361;51.598;7.650;2022-07-29T08:28:08;25.10;41.50
33007;DHT22;19361;51.598;7.650;2022-07-29T08:33:09;25.30;41.90
33007;DHT22;19361;51.598;7.650;2022-07-29T08:38:10;25.50;41.40
33007;DHT22;19361;51.598;7.650;2022-07-29T08:43:10;25.70;41.30
33007;DHT22;19361;51.598;7.650;2022-07-29T08:48:12;25.90;40.80
33007;DHT22;19361;51.598;7.650;2022-07-29T08:53:16;26.00;40.70
33007;DHT22;19361;51.598;7.650;2022-07-29T08:58:18;26.30;40.60
33007;DHT22;19361;51.598;7.650;2022-07-29T09:03:22;26.60;40.40
33007;DHT22;19361;51.598;7.650;2022-07-29T09:08:24;26.90;39.90
33007;DHT22;19361;51.598;7.650;2022-07-29T09:13:26;27.10;39.60
33007;DHT22;19361;51.598;7.650;2022-07-29T09:18:37;27.20;38.80
33007;DHT22;19361;51.598;7.650;2022-07-29T09:23:38;27.40;38.00
33007;DHT22;19361;51.598;7.650;2022-07-29T09:28:41;27.50;38.80
33007;DHT22;19361;51.598;7.650;2022-07-29T09:33:42;27.60;38.50
33007;DHT22;19361;51.598;7.650;2022-07-29T09:38:57;27.90;38.30
33007;DHT22;19361;51.598;7.650;2022-07-29T09:44:00;28.10;37.40
33007;DHT22;19361;51.598;7.650;2022-07-29T09:49:10;28.20;37.50
33007;DHT22;19361;51.598;7.650;2022-07-29T09:54:23;28.30;36.80
33007;DHT22;19361;51.598;7.650;2022-07-29T09:59:24;28.40;36.80
33007;DHT22;19361;51.598;7.650;2022-07-29T10:04:37;28.40;37.10
33007;DHT22;19361;51.598;7.650;2022-07-29T10:09:39;28.40;36.70
33007;DHT22;19361;51.598;7.650;2022-07-29T10:14:51;28.40;36.80
33007;DHT22;19361;51.598;7.650;2022-07-29T10:19:52;28.40;37.10
33007;DHT22;19361;51.598;7.650;2022-07-29T10:24:54;28.30;36.90
33007;DHT22;19361;51.598;7.650;2022-07-29T10:29:55;28.20;37.00
33007;DHT22;19361;51.598;7.650;2022-07-29T10:46:25;28.00;37.00
33007;DHT22;19361;51.598;7.650;2022-07-29T10:56:50;27.90;37.50
33007;DHT22;19361;51.598;7.650;2022-07-29T11:01:52;27.80;38.00
33007;DHT22;19361;51.598;7.650;2022-07-29T11:07:06;27.70;38.50
33007;DHT22;19361;51.598;7.650;2022-07-29T11:22:58;27.00;39.20
33007;DHT22;19361;51.598;7.650;2022-07-29T11:28:10;26.80;39.30
33007;DHT22;19361;51.598;7.650;2022-07-29T11:33:31;26.60;40.00
33007;DHT22;19361;51.598;7.650;2022-07-29T11:38:32;26.50;40.00
33007;DHT22;19361;51.598;7.650;2022-07-29T11:43:50;26.40;40.30
33007;DHT22;19361;51.598;7.650;2022-07-29T11:48:51;26.30;40.80
33007;DHT22;19361;51.598;7.650;2022-07-29T11:53:53;26.20;41.00
33007;DHT22;19361;51.598;7.650;2022-07-29T11:59:06;26.10;41.40
33007;DHT22;19361;51.598;7.650;2022-07-29T12:04:09;25.90;42.50
33007;DHT22;19361;51.598;7.650;2022-07-29T12:09:10;25.90;41.90
33007;DHT22;19361;51.598;7.650;2022-07-29T12:14:25;25.80;41.90
33007;DHT22;19361;51.598;7.650;2022-07-29T12:19:27;25.80;42.30
33007;DHT22;19361;51.598;7.650;2022-07-29T12:24:43;25.90;41.90
33007;DHT22;19361;51.598;7.650;2022-07-29T12:29:54;25.90;42.50
33007;DHT22;19361;51.598;7.650;2022-07-29T12:35:03;25.90;41.70
33007;DHT22;19361;51.598;7.650;2022-07-29T12:40:06;25.80;41.70
33007;DHT22;19361;51.598;7.650;2022-07-29T12:45:08;25.70;41.40
33007;DHT22;19361;51.598;7.650;2022-07-29T12:50:11;25.60;41.60
33007;DHT22;19361;51.598;7.650;2022-07-29T12:55:15;25.50;41.60
33007;DHT22;19361;51.598;7.650;2022-07-29T13:00:16;25.30;41.50
33007;DHT22;19361;51.598;7.650;2022-07-29T13:05:17;25.20;41.90
33007;DHT22;19361;51.598;7.650;2022-07-29T13:10:20;25.10;42.30
33007;DHT22;19361;51.598;7.650;2022-07-29T13:15:21;25.10;42.80
33007;DHT22;19361;51.598;7.650;2022-07-29T13:20:26;25.00;43.00
33007;DHT22;19361;51.598;7.650;2022-07-29T13:25:32;25.00;43.20
33007;DHT22;19361;51.598;7.650;2022-07-29T13:30:33;25.10;43.40
33007;DHT22;19361;51.598;7.650;2022-07-29T13:35:34;25.10;43.60
33007;DHT22;19361;51.598;7.650;2022-07-29T13:40:35;25.20;44.20
33007;DHT22;19361;51.598;7.650;2022-07-29T13:45:36;25.30;44.30
33007;DHT22;19361;51.598;7.650;2022-07-29T13:50:37;25.50;44.60
33007;DHT22;19361;51.598;7.650;2022-07-29T13:55:37;25.60;44.20
33007;DHT22;19361;51.598;7.650;2022-07-29T14:00:38;25.60;44.30
33007;DHT22;19361;51.598;7.650;2022-07-29T14:05:39;25.70;44.50
33007;DHT22;19361;51.598;7.650;2022-07-29T14:10:39;25.60;44.80
33007;DHT22;19361;51.598;7.650;2022-07-29T14:15:40;25.60;45.00
33007;DHT22;19361;51.598;7.650;2022-07-29T14:20:41;25.60;45.00
33007;DHT22;19361;51.598;7.650;2022-07-29T14:25:41;25.70;44.70
33007;DHT22;19361;51.598;7.650;2022-07-29T14:30:42;25.80;44.80
33007;DHT22;19361;51.598;7.650;2022-07-29T14:35:44;25.90;45.00
33007;DHT22;19361;51.598;7.650;2022-07-29T14:40:45;26.10;45.00
33007;DHT22;19361;51.598;7.650;2022-07-29T14:45:46;26.20;45.00
33007;DHT22;19361;51.598;7.650;2022-07-29T14:50:47;26.30;44.50
33007;DHT22;19361;51.598;7.650;2022-07-29T14:55:48;26.50;44.30
33007;DHT22;19361;51.598;7.650;2022-07-29T15:00:49;26.60;44.50
33007;DHT22;19361;51.598;7.650;2022-07-29T15:05:50;26.60;44.30
33007;DHT22;19361;51.598;7.650;2022-07-29T15:10:51;26.70;44.10
33007;DHT22;19361;51.598;7.650;2022-07-29T15:15:52;26.80;44.20
33007;DHT22;19361;51.598;7.650;2022-07-29T15:20:53;26.90;44.10
33007;DHT22;19361;51.598;7.650;2022-07-29T15:25:53;27.10;43.90
33007;DHT22;19361;51.598;7.650;2022-07-29T15:30:54;27.20;43.60
33007;DHT22;19361;51.598;7.650;2022-07-29T15:35:56;27.20;43.30
33007;DHT22;19361;51.598;7.650;2022-07-29T15:40:56;27.20;43.30
33007;DHT22;19361;51.598;7.650;2022-07-29T15:45:57;27.20;43.70
33007;DHT22;19361;51.598;7.650;2022-07-29T15:51:16;27.30;43.10
33007;DHT22;19361;51.598;7.650;2022-07-29T15:56:18;27.40;42.70
33007;DHT22;19361;51.598;7.650;2022-07-29T16:01:19;27.40;42.50
33007;DHT22;19361;51.598;7.650;2022-07-29T16:06:19;27.40;42.60
33007;DHT22;19361;51.598;7.650;2022-07-29T16:11:20;27.40;42.30
33007;DHT22;19361;51.598;7.650;2022-07-29T16:16:21;27.40;42.20
33007;DHT22;19361;51.598;7.650;2022-07-29T16:21:21;27.40;42.20
33007;DHT22;19361;51.598;7.650;2022-07-29T16:26:22;27.30;41.80
33007;DHT22;19361;51.598;7.650;2022-07-29T16:31:23;27.20;41.60
33007;DHT22;19361;51.598;7.650;2022-07-29T16:36:24;27.20;41.60
33007;DHT22;19361;51.598;7.650;2022-07-29T16:41:24;27.30;42.00
33007;DHT22;19361;51.598;7.650;2022-07-29T16:46:25;27.40;42.10
33007;DHT22;19361;51.598;7.650;2022-07-29T16:51:26;27.50;41.80
33007;DHT22;19361;51.598;7.650;2022-07-29T16:56:28;27.60;41.50
33007;DHT22;19361;51.598;7.650;2022-07-29T17:01:28;27.70;41.60
33007;DHT22;19361;51.598;7.650;2022-07-29T17:06:29;27.60;41.50
33007;DHT22;19361;51.598;7.650;2022-07-29T17:11:32;27.60;41.50
33007;DHT22;19361;51.598;7.650;2022-07-29T17:16:33;27.60;41.30
33007;DHT22;19361;51.598;7.650;2022-07-29T17:21:34;27.60;41.30
33007;DHT22;19361;51.598;7.650;2022-07-29T17:26:34;27.60;41.20
33007;DHT22;19361;51.598;7.650;2022-07-29T17:31:36;27.60;41.40
33007;DHT22;19361;51.598;7.650;2022-07-29T17:36:37;27.70;41.30
33007;DHT22;19361;51.598;7.650;2022-07-29T17:41:38;27.80;41.10
33007;DHT22;19361;51.598;7.650;2022-07-29T17:46:41;27.80;41.10
33007;DHT22;19361;51.598;7.650;2022-07-29T17:51:42;27.70;41.20
33007;DHT22;19361;51.598;7.650;2022-07-29T17:56:42;27.60;41.40
33007;DHT22;19361;51.598;7.650;2022-07-29T18:01:43;27.60;41.60
33007;DHT22;19361;51.598;7.650;2022-07-29T18:06:44;27.50;41.60
33007;DHT22;19361;51.598;7.650;2022-07-29T18:11:45;27.40;41.60
33007;DHT22;19361;51.598;7.650;2022-07-29T18:16:46;27.40;41.70
33007;DHT22;19361;51.598;7.650;2022-07-29T18:21:47;27.30;41.60
33007;DHT22;19361;51.598;7.650;2022-07-29T18:26:48;27.20;41.70
33007;DHT22;19361;51.598;7.650;2022-07-29T18:31:48;27.10;41.80
33007;DHT22;19361;51.598;7.650;2022-07-29T18:36:50;27.00;41.90
33007;DHT22;19361;51.598;7.650;2022-07-29T18:41:50;26.90;42.00
33007;DHT22;19361;51.598;7.650;2022-07-29T18:46:51;26.80;42.00
33007;DHT22;19361;51.598;7.650;2022-07-29T18:51:52;26.70;41.90
33007;DHT22;19361;51.598;7.650;2022-07-29T18:56:53;26.60;42.00
33007;DHT22;19361;51.598;7.650;2022-07-29T19:01:54;26.50;41.90
33007;DHT22;19361;51.598;7.650;2022-07-29T19:06:54;26.50;42.10
33007;DHT22;19361;51.598;7.650;2022-07-29T19:11:58;26.30;42.10
33007;DHT22;19361;51.598;7.650;2022-07-29T19:16:58;26.30;42.30
33007;DHT22;19361;51.598;7.650;2022-07-29T19:21:59;26.20;42.40
33007;DHT22;19361;51.598;7.650;2022-07-29T19:27:00;26.10;42.40
33007;DHT22;19361;51.598;7.650;2022-07-29T19:32:01;26.00;42.60
33007;DHT22;19361;51.598;7.650;2022-07-29T19:37:01;25.80;42.60
33007;DHT22;19361;51.598;7.650;2022-07-29T19:42:02;25.80;42.90
33007;DHT22;19361;51.598;7.650;2022-07-29T19:47:04;25.70;43.10
33007;DHT22;19361;51.598;7.650;2022-07-29T19:52:05;25.60;43.30
33007;DHT22;19361;51.598;7.650;2022-07-29T19:57:06;25.50;43.60
33007;DHT22;19361;51.598;7.650;2022-07-29T20:02:06;25.40;43.60
33007;DHT22;19361;51.598;7.650;2022-07-29T20:07:10;25.20;43.90
33007;DHT22;19361;51.598;7.650;2022-07-29T20:12:12;25.10;44.10
33007;DHT22;19361;51.598;7.650;2022-07-29T20:17:13;25.00;44.20
33007;DHT22;19361;51.598;7.650;2022-07-29T20:22:14;24.90;44.60
33007;DHT22;19361;51.598;7.650;2022-07-29T20:27:15;24.80;45.20
33007;DHT22;19361;51.598;7.650;2022-07-29T20:32:15;24.80;44.90
33007;DHT22;19361;51.598;7.650;2022-07-29T20:37:16;24.70;45.10
33007;DHT22;19361;51.598;7.650;2022-07-29T20:42:19;24.60;45.20
33007;DHT22;19361;51.598;7.650;2022-07-29T20:47:20;24.60;45.50
33007;DHT22;19361;51.598;7.650;2022-07-29T20:52:21;24.50;45.40
33007;DHT22;19361;51.598;7.650;2022-07-29T20:57:22;24.50;45.70
33007;DHT22;19361;51.598;7.650;2022-07-29T21:02:23;24.40;45.80
33007;DHT22;19361;51.598;7.650;2022-07-29T21:07:24;24.40;45.90
33007;DHT22;19361;51.598;7.650;2022-07-29T21:12:24;24.30;46.20
33007;DHT22;19361;51.598;7.650;2022-07-29T21:17:25;24.20;46.20
33007;DHT22;19361;51.598;7.650;2022-07-29T21:22:26;24.20;46.30
33007;DHT22;19361;51.598;7.650;2022-07-29T21:27:26;24.10;46.30
33007;DHT22;19361;51.598;7.650;2022-07-29T21:32:45;24.10;46.30
33007;DHT22;19361;51.598;7.650;2022-07-29T21:37:46;24.00;46.20
33007;DHT22;19361;51.598;7.650;2022-07-29T21:42:47;24.00;46.40
33007;DHT22;19361;51.598;7.650;2022-07-29T21:47:48;24.00;46.40
33007;DHT22;19361;51.598;7.650;2022-07-29T21:52:48;24.00;46.30
33007;DHT22;19361;51.598;7.650;2022-07-29T21:57:49;24.00;46.50
33007;DHT22;19361;51.598;7.650;2022-07-29T22:02:51;23.90;46.50
33007;DHT22;19361;51.598;7.650;2022-07-29T22:07:52;23.90;46.80
33007;DHT22;19361;51.598;7.650;2022-07-29T22:12:55;23.80;46.90
33007;DHT22;19361;51.598;7.650;2022-07-29T22:17:56;23.80;46.90
33007;DHT22;19361;51.598;7.650;2022-07-29T22:22:58;23.80;46.80
33007;DHT22;19361;51.598;7.650;2022-07-29T22:27:58;23.70;46.90
33007;DHT22;19361;51.598;7.650;2022-07-29T22:32:59;23.60;47.00
33007;DHT22;19361;51.598;7.650;2022-07-29T22:38:00;23.60;47.20
33007;DHT22;19361;51.598;7.650;2022-07-29T22:43:00;23.50;47.50
33007;DHT22;19361;51.598;7.650;2022-07-29T22:48:01;23.40;47.60
33007;DHT22;19361;51.598;7.650;2022-07-29T22:53:02;23.40;47.70
33007;DHT22;19361;51.598;7.650;2022-07-29T22:58:02;23.30;47.70
33007;DHT22;19361;51.598;7.650;2022-07-29T23:03:03;23.30;48.10
33007;DHT22;19361;51.598;7.650;2022-07-29T23:08:04;23.20;48.30
33007;DHT22;19361;51.598;7.650;2022-07-29T23:13:04;23.20;48.30
33007;DHT22;19361;51.598;7.650;2022-07-29T23:18:05;23.10;48.80
33007;DHT22;19361;51.598;7.650;2022-07-29T23:23:06;23.10;48.70
33007;DHT22;19361;51.598;7.650;2022-07-29T23:28:07;23.10;49.00
33007;DHT22;19361;51.598;7.650;2022-07-29T23:33:08;23.10;49.20
33007;DHT22;19361;51.598;7.650;2022-07-29T23:38:08;23.00;49.10
33007;DHT22;19361;51.598;7.650;2022-07-29T23:43:09;23.00;49.20
33007;DHT22;19361;51.598;7.650;2022-07-29T23:48:10;23.10;49.50
33007;DHT22;19361;51.598;7.650;2022-07-29T23:53:11;23.00;49.50
33007;DHT22;19361;51.598;7.650;2022-07-29T23:58:11;23.00;49.60
